Sunflower, MS

6:09 PM CDT on September 20, 2014 (GMT -0500)
KC4ECB Amature Radio Station on Old Tallahatchie River | Change Station
CLOSE
Current Station
Personal Weather Station
Location: Minter City, MS
Elevation: 140 ft
Nearby Weather Stations

Elev 140 ft 33.74 °N, 90.31 °W | Updated 3 minutes ago

Clear
Clear
86.4 °F
Feels Like 93 °F
N
0.0
Wind Variable Wind from NNE
Gusts 0.0 mph

Today
High -- | Low -- °F
--% Chance of Precip.
Yesterday
High -- | Low -- °F
Precip. -- in
6:48 AM 7:01 PM
Waning Crescent, 10% visible
Pressure 29.95 in
Visibility 10.0 miles
Clouds Scattered Clouds 7000 ft
Heat Index 93 °F
Dew Point 72 °F
Humidity 63%
Rainfall 0.00 in
Snow Depth Not available.
UV 0.0 out of 12
Pollen 10.60 out of 12
Air Quality Not available.
Flu Activity Not available.
METAR KRNV 202255Z AUTO 09003KT 10SM SCT070 31/19 A2995 RMK AO2 T03060192

More Conditions Fewer Conditions

Pressure 29.95 in
Visibility 10.0 miles
Clouds Scattered Clouds 7000 ft
Heat Index 93 °F
Dew Point 72 °F
Humidity 63%
Rainfall 0.00 in
Snow Depth Not available.
UV 0.0 out of 12
Pollen 10.60 out of 12
Air Quality Not available.
Flu Activity Not available.
METAR KRNV 202255Z AUTO 09003KT 10SM SCT070 31/19 A2995 RMK AO2 T03060192

More Conditions Fewer Conditions

10-Day Weather Forecast

Almanac

Astronomy

Sep. 20, 2014 Rise Set
Actual Time 6:48 AM CDT 7:01 PM CDT
Civil Twilight 6:24 AM CDT 7:26 PM CDT
Nautical Twilight 5:54 AM CDT 7:55 PM CDT
Astronomical Twilight 5:25 AM CDT 8:24 PM CDT
Moon 3:36 AM CDT 4:58 PM CDT
Length of Visible Light 13h 02m
Length of Day
12h 12m
Tomorrow will be 2m 4s shorter.
Waning Crescent, 10% of the Moon is Illuminated
Today
Waning Crescent
Sep 24
New
Oct 1
First Quarter
Oct 8
Full
Oct 15
Last Quarter

Today's Extremes

State Highs State Lows

Community

WunderPhotos

Upload Photos

1,754,972 photos uploaded!

WunderBlogs® & News

Nearby

Snow Depth

Station Depth Elevation
No new snow has been reported.

Earthquake Activity

City Distance Mag. Time & Date
No recent earthquake activity has been reported nearby.
Minimum magnitude displayed is 2.5.

Coastal Water Temperatures

Place Temperature
No Stations Reporting

Nearby Weather Stations